sensor_id;sensor_type;location;lat;lon;timestamp;temperature;humidity
13496;DHT22;6820;49.374;8.452;2022-08-01T00:00:19;25.82;84.90
13496;DHT22;6820;49.374;8.452;2022-08-01T00:04:21;25.81;85.00
13496;DHT22;6820;49.374;8.452;2022-08-01T00:08:23;25.78;85.00
13496;DHT22;6820;49.374;8.452;2022-08-01T00:12:24;25.76;85.10
13496;DHT22;6820;49.374;8.452;2022-08-01T00:16:26;25.75;85.33
13496;DHT22;6820;49.374;8.452;2022-08-01T00:20:28;25.71;85.83
13496;DHT22;6820;49.374;8.452;2022-08-01T00:24:30;25.67;86.03
13496;DHT22;6820;49.374;8.452;2022-08-01T00:28:31;25.64;86.03
13496;DHT22;6820;49.374;8.452;2022-08-01T00:32:33;25.60;86.43
13496;DHT22;6820;49.374;8.452;2022-08-01T00:36:35;25.54;87.12
13496;DHT22;6820;49.374;8.452;2022-08-01T00:40:36;25.46;87.92
13496;DHT22;6820;49.374;8.452;2022-08-01T00:44:38;25.36;88.55
13496;DHT22;6820;49.374;8.452;2022-08-01T00:48:40;25.27;89.15
13496;DHT22;6820;49.374;8.452;2022-08-01T00:52:42;25.23;89.59
13496;DHT22;6820;49.374;8.452;2022-08-01T00:56:52;25.22;89.69
13496;DHT22;6820;49.374;8.452;2022-08-01T01:00:54;25.20;90.09
13496;DHT22;6820;49.374;8.452;2022-08-01T01:04:56;25.12;90.68
13496;DHT22;6820;49.374;8.452;2022-08-01T01:09:14;25.05;90.88
13496;DHT22;6820;49.374;8.452;2022-08-01T01:17:28;24.89;91.82
13496;DHT22;6820;49.374;8.452;2022-08-01T01:22:00;24.90;91.92
13496;DHT22;6820;49.374;8.452;2022-08-01T01:30:30;24.87;92.02
13496;DHT22;6820;49.374;8.452;2022-08-01T01:34:35;24.79;92.41
13496;DHT22;6820;49.374;8.452;2022-08-01T01:38:40;24.67;92.96
13496;DHT22;6820;49.374;8.452;2022-08-01T01:42:45;24.59;93.45
13496;DHT22;6820;49.374;8.452;2022-08-01T01:46:48;24.55;93.55
13496;DHT22;6820;49.374;8.452;2022-08-01T01:50:53;24.53;93.70
13496;DHT22;6820;49.374;8.452;2022-08-01T01:54:55;24.52;93.90
13496;DHT22;6820;49.374;8.452;2022-08-01T01:58:59;24.44;94.09
13496;DHT22;6820;49.374;8.452;2022-08-01T02:03:04;24.42;94.20
13496;DHT22;6820;49.374;8.452;2022-08-01T02:07:09;24.45;94.09
13496;DHT22;6820;49.374;8.452;2022-08-01T02:11:13;24.45;94.20
13496;DHT22;6820;49.374;8.452;2022-08-01T02:15:21;24.46;94.39
13496;DHT22;6820;49.374;8.452;2022-08-01T02:19:24;24.37;94.89
13496;DHT22;6820;49.374;8.452;2022-08-01T02:23:28;24.31;95.09
13496;DHT22;6820;49.374;8.452;2022-08-01T02:27:36;24.31;95.03
13496;DHT22;6820;49.374;8.452;2022-08-01T02:31:43;24.31;95.14
13496;DHT22;6820;49.374;8.452;2022-08-01T02:35:50;24.33;95.23
13496;DHT22;6820;49.374;8.452;2022-08-01T02:40:14;24.37;95.14
13496;DHT22;6820;49.374;8.452;2022-08-01T02:44:23;24.39;95.29
13496;DHT22;6820;49.374;8.452;2022-08-01T02:48:26;24.37;95.29
13496;DHT22;6820;49.374;8.452;2022-08-01T02:52:29;24.37;95.29
13496;DHT22;6820;49.374;8.452;2022-08-01T02:56:34;24.36;95.49
13496;DHT22;6820;49.374;8.452;2022-08-01T03:00:37;24.30;95.68
13496;DHT22;6820;49.374;8.452;2022-08-01T03:04:41;24.24;96.33
13496;DHT22;6820;49.374;8.452;2022-08-01T03:08:44;24.23;96.43
13496;DHT22;6820;49.374;8.452;2022-08-01T03:12:49;24.24;96.43
13496;DHT22;6820;49.374;8.452;2022-08-01T03:16:52;24.15;97.22
13496;DHT22;6820;49.374;8.452;2022-08-01T03:20:56;23.97;97.82
13496;DHT22;6820;49.374;8.452;2022-08-01T03:25:00;24.00;97.77
13496;DHT22;6820;49.374;8.452;2022-08-01T03:29:05;24.04;97.67
13496;DHT22;6820;49.374;8.452;2022-08-01T03:33:10;24.02;97.67
13496;DHT22;6820;49.374;8.452;2022-08-01T03:37:19;24.04;97.67
13496;DHT22;6820;49.374;8.452;2022-08-01T03:41:27;24.05;97.57
13496;DHT22;6820;49.374;8.452;2022-08-01T03:45:38;24.02;97.67
13496;DHT22;6820;49.374;8.452;2022-08-01T03:49:42;23.94;97.77
13496;DHT22;6820;49.374;8.452;2022-08-01T03:53:46;23.87;97.87
13496;DHT22;6820;49.374;8.452;2022-08-01T03:57:49;23.78;98.17
13496;DHT22;6820;49.374;8.452;2022-08-01T04:01:51;23.75;98.32
13496;DHT22;6820;49.374;8.452;2022-08-01T04:05:54;23.75;98.21
13496;DHT22;6820;49.374;8.452;2022-08-01T04:09:56;23.74;98.41
13496;DHT22;6820;49.374;8.452;2022-08-01T04:13:58;23.63;98.91
13496;DHT22;6820;49.374;8.452;2022-08-01T04:17:59;23.63;98.91
13496;DHT22;6820;49.374;8.452;2022-08-01T04:22:01;23.63;99.11
13496;DHT22;6820;49.374;8.452;2022-08-01T04:26:04;23.60;99.21
13496;DHT22;6820;49.374;8.452;2022-08-01T04:30:08;23.63;99.26
13496;DHT22;6820;49.374;8.452;2022-08-01T04:34:20;23.63;99.11
13496;DHT22;6820;49.374;8.452;2022-08-01T04:38:25;23.67;99.11
13496;DHT22;6820;49.374;8.452;2022-08-01T04:42:29;23.64;99.21
13496;DHT22;6820;49.374;8.452;2022-08-01T04:46:33;23.68;99.31
13496;DHT22;6820;49.374;8.452;2022-08-01T04:50:37;23.71;99.31
13496;DHT22;6820;49.374;8.452;2022-08-01T04:54:39;23.82;99.01
13496;DHT22;6820;49.374;8.452;2022-08-01T04:58:41;23.87;99.11
13496;DHT22;6820;49.374;8.452;2022-08-01T05:02:44;23.81;99.36
13496;DHT22;6820;49.374;8.452;2022-08-01T05:06:46;23.79;99.51
13496;DHT22;6820;49.374;8.452;2022-08-01T05:10:47;23.87;99.51
13496;DHT22;6820;49.374;8.452;2022-08-01T05:14:49;23.89;99.26
13496;DHT22;6820;49.374;8.452;2022-08-01T05:18:51;23.94;99.16
13496;DHT22;6820;49.374;8.452;2022-08-01T05:22:53;23.96;99.16
13496;DHT22;6820;49.374;8.452;2022-08-01T05:26:55;23.89;99.56
13496;DHT22;6820;49.374;8.452;2022-08-01T05:30:57;23.79;99.86
13496;DHT22;6820;49.374;8.452;2022-08-01T05:34:59;23.75;99.99
13496;DHT22;6820;49.374;8.452;2022-08-01T05:39:01;23.71;99.99
13496;DHT22;6820;49.374;8.452;2022-08-01T05:43:02;23.63;99.99
13496;DHT22;6820;49.374;8.452;2022-08-01T05:47:04;23.63;99.99
13496;DHT22;6820;49.374;8.452;2022-08-01T05:51:06;23.59;99.99
13496;DHT22;6820;49.374;8.452;2022-08-01T05:55:07;23.57;99.99
13496;DHT22;6820;49.374;8.452;2022-08-01T05:59:10;23.57;99.99
13496;DHT22;6820;49.374;8.452;2022-08-01T06:03:12;23.64;99.99
13496;DHT22;6820;49.374;8.452;2022-08-01T06:07:14;23.77;99.99
13496;DHT22;6820;49.374;8.452;2022-08-01T06:11:15;23.96;99.99
13496;DHT22;6820;49.374;8.452;2022-08-01T06:15:17;24.24;99.99
13496;DHT22;6820;49.374;8.452;2022-08-01T06:19:19;24.41;99.81
13496;DHT22;6820;49.374;8.452;2022-08-01T06:23:21;24.29;99.46
13496;DHT22;6820;49.374;8.452;2022-08-01T06:27:36;24.18;99.61
13496;DHT22;6820;49.374;8.452;2022-08-01T06:31:37;24.09;99.99
13496;DHT22;6820;49.374;8.452;2022-08-01T06:35:39;24.19;99.99
13496;DHT22;6820;49.374;8.452;2022-08-01T06:39:41;24.39;99.71
13496;DHT22;6820;49.374;8.452;2022-08-01T06:43:43;24.49;99.66
13496;DHT22;6820;49.374;8.452;2022-08-01T06:47:44;24.52;99.07
13496;DHT22;6820;49.374;8.452;2022-08-01T06:51:51;24.55;99.16
13496;DHT22;6820;49.374;8.452;2022-08-01T06:55:53;24.60;98.87
13496;DHT22;6820;49.374;8.452;2022-08-01T06:59:55;24.63;98.82
13496;DHT22;6820;49.374;8.452;2022-08-01T07:03:57;24.60;98.52
13496;DHT22;6820;49.374;8.452;2022-08-01T07:07:58;24.63;98.13
13496;DHT22;6820;49.374;8.452;2022-08-01T07:12:00;24.66;98.03
13496;DHT22;6820;49.374;8.452;2022-08-01T07:16:02;24.80;97.63
13496;DHT22;6820;49.374;8.452;2022-08-01T07:20:04;24.90;98.03
13496;DHT22;6820;49.374;8.452;2022-08-01T07:24:11;24.94;97.28
13496;DHT22;6820;49.374;8.452;2022-08-01T07:28:15;25.07;97.08
13496;DHT22;6820;49.374;8.452;2022-08-01T07:32:17;25.22;96.74
13496;DHT22;6820;49.374;8.452;2022-08-01T07:36:19;25.24;96.94
13496;DHT22;6820;49.374;8.452;2022-08-01T07:40:20;25.19;96.64
13496;DHT22;6820;49.374;8.452;2022-08-01T07:44:22;25.08;97.04
13496;DHT22;6820;49.374;8.452;2022-08-01T07:48:23;25.19;96.64
13496;DHT22;6820;49.374;8.452;2022-08-01T07:52:26;25.31;96.44
13496;DHT22;6820;49.374;8.452;2022-08-01T07:56:28;25.42;95.90
13496;DHT22;6820;49.374;8.452;2022-08-01T08:00:29;25.60;95.70
13496;DHT22;6820;49.374;8.452;2022-08-01T08:04:31;25.64;95.26
13496;DHT22;6820;49.374;8.452;2022-08-01T08:08:33;25.64;94.96
13496;DHT22;6820;49.374;8.452;2022-08-01T08:12:35;25.51;95.36
13496;DHT22;6820;49.374;8.452;2022-08-01T08:16:37;25.56;95.60
13496;DHT22;6820;49.374;8.452;2022-08-01T08:20:40;25.74;95.16
13496;DHT22;6820;49.374;8.452;2022-08-01T08:24:41;25.89;94.66
13496;DHT22;6820;49.374;8.452;2022-08-01T08:28:46;26.12;94.02
13496;DHT22;6820;49.374;8.452;2022-08-01T08:32:48;26.21;93.68
13496;DHT22;6820;49.374;8.452;2022-08-01T08:36:50;26.35;93.08
13496;DHT22;6820;49.374;8.452;2022-08-01T08:40:52;26.42;92.44
13496;DHT22;6820;49.374;8.452;2022-08-01T08:44:54;26.39;92.94
13496;DHT22;6820;49.374;8.452;2022-08-01T08:48:56;26.44;92.84
13496;DHT22;6820;49.374;8.452;2022-08-01T08:52:59;26.59;92.44
13496;DHT22;6820;49.374;8.452;2022-08-01T08:57:06;26.66;90.81
13496;DHT22;6820;49.374;8.452;2022-08-01T09:01:08;26.81;91.11
13496;DHT22;6820;49.374;8.452;2022-08-01T09:05:11;27.13;91.56
13496;DHT22;6820;49.374;8.452;2022-08-01T09:09:19;27.18;90.03
13496;DHT22;6820;49.374;8.452;2022-08-01T09:13:21;27.33;89.84
13496;DHT22;6820;49.374;8.452;2022-08-01T09:17:23;27.45;89.11
13496;DHT22;6820;49.374;8.452;2022-08-01T09:21:24;27.59;87.12
13496;DHT22;6820;49.374;8.452;2022-08-01T09:25:28;27.78;86.88
13496;DHT22;6820;49.374;8.452;2022-08-01T09:29:46;27.81;86.25
13496;DHT22;6820;49.374;8.452;2022-08-01T09:34:01;27.77;86.84
13496;DHT22;6820;49.374;8.452;2022-08-01T09:38:11;27.81;86.84
13496;DHT22;6820;49.374;8.452;2022-08-01T09:42:19;27.93;87.63
13496;DHT22;6820;49.374;8.452;2022-08-01T09:46:29;27.86;88.13
13496;DHT22;6820;49.374;8.452;2022-08-01T09:50:38;27.93;87.43
13496;DHT22;6820;49.374;8.452;2022-08-01T09:54:42;28.03;87.54
13496;DHT22;6820;49.374;8.452;2022-08-01T09:58:51;28.17;87.19
13496;DHT22;6820;49.374;8.452;2022-08-01T10:03:00;28.23;87.00
13496;DHT22;6820;49.374;8.452;2022-08-01T10:07:21;28.28;86.76
13496;DHT22;6820;49.374;8.452;2022-08-01T10:11:43;28.50;86.36
13496;DHT22;6820;49.374;8.452;2022-08-01T10:15:45;28.61;85.73
13496;DHT22;6820;49.374;8.452;2022-08-01T10:19:48;29.02;85.53
13496;DHT22;6820;49.374;8.452;2022-08-01T10:23:51;29.14;84.37
13496;DHT22;6820;49.374;8.452;2022-08-01T10:28:12;29.15;83.68
13496;DHT22;6820;49.374;8.452;2022-08-01T10:32:21;29.12;83.97
13496;DHT22;6820;49.374;8.452;2022-08-01T10:36:25;28.87;83.78
13496;DHT22;6820;49.374;8.452;2022-08-01T10:40:29;28.88;84.11
13496;DHT22;6820;49.374;8.452;2022-08-01T10:44:32;28.76;83.81
13496;DHT22;6820;49.374;8.452;2022-08-01T10:48:49;28.92;84.21
13496;DHT22;6820;49.374;8.452;2022-08-01T10:53:18;29.08;83.68
13496;DHT22;6820;49.374;8.452;2022-08-01T10:57:43;29.21;83.38
13496;DHT22;6820;49.374;8.452;2022-08-01T11:01:57;29.08;83.64
13496;DHT22;6820;49.374;8.452;2022-08-01T11:05:59;29.15;83.68
13496;DHT22;6820;49.374;8.452;2022-08-01T11:10:03;29.27;83.18
13496;DHT22;6820;49.374;8.452;2022-08-01T11:14:15;29.54;83.24
13496;DHT22;6820;49.374;8.452;2022-08-01T11:18:50;29.70;82.51
13496;DHT22;6820;49.374;8.452;2022-08-01T11:27:21;29.89;81.35
13496;DHT22;6820;49.374;8.452;2022-08-01T11:31:24;30.04;80.99
13496;DHT22;6820;49.374;8.452;2022-08-01T11:35:27;30.13;80.76
13496;DHT22;6820;49.374;8.452;2022-08-01T11:39:30;30.04;80.66
13496;DHT22;6820;49.374;8.452;2022-08-01T11:48:16;30.56;79.93
13496;DHT22;6820;49.374;8.452;2022-08-01T11:52:29;30.60;79.30
13496;DHT22;6820;49.374;8.452;2022-08-01T11:56:34;30.68;79.60
13496;DHT22;6820;49.374;8.452;2022-08-01T12:00:49;30.91;79.76
13496;DHT22;6820;49.374;8.452;2022-08-01T12:04:56;31.28;78.74
13496;DHT22;6820;49.374;8.452;2022-08-01T12:09:21;31.74;77.52
13496;DHT22;6820;49.374;8.452;2022-08-01T12:13:24;31.95;76.56
13496;DHT22;6820;49.374;8.452;2022-08-01T12:17:29;32.19;76.14
13496;DHT22;6820;49.374;8.452;2022-08-01T12:21:33;31.98;76.68
13496;DHT22;6820;49.374;8.452;2022-08-01T12:25:35;32.19;76.53
13496;DHT22;6820;49.374;8.452;2022-08-01T12:29:39;32.12;76.39
13496;DHT22;6820;49.374;8.452;2022-08-01T12:33:42;31.72;76.88
13496;DHT22;6820;49.374;8.452;2022-08-01T12:37:47;31.38;77.84
13496;DHT22;6820;49.374;8.452;2022-08-01T12:41:50;31.38;77.87
13496;DHT22;6820;49.374;8.452;2022-08-01T12:45:52;31.34;77.68
13496;DHT22;6820;49.374;8.452;2022-08-01T12:49:57;31.45;77.42
13496;DHT22;6820;49.374;8.452;2022-08-01T12:53:59;31.35;77.39
13496;DHT22;6820;49.374;8.452;2022-08-01T12:58:05;31.13;77.81
13496;DHT22;6820;49.374;8.452;2022-08-01T13:02:15;30.98;78.50
13496;DHT22;6820;49.374;8.452;2022-08-01T13:06:17;31.10;78.25
13496;DHT22;6820;49.374;8.452;2022-08-01T13:10:29;31.19;78.34
13496;DHT22;6820;49.374;8.452;2022-08-01T13:14:47;31.19;78.11
13496;DHT22;6820;49.374;8.452;2022-08-01T13:18:50;31.05;78.41
13496;DHT22;6820;49.374;8.452;2022-08-01T13:22:53;31.22;78.05
13496;DHT22;6820;49.374;8.452;2022-08-01T13:26:56;31.22;76.93
13496;DHT22;6820;49.374;8.452;2022-08-01T13:31:04;31.37;77.13
13496;DHT22;6820;49.374;8.452;2022-08-01T13:35:08;31.35;75.72
13496;DHT22;6820;49.374;8.452;2022-08-01T13:39:11;31.35;76.44
13496;DHT22;6820;49.374;8.452;2022-08-01T13:43:32;31.57;76.74
13496;DHT22;6820;49.374;8.452;2022-08-01T13:47:54;31.56;75.72
13496;DHT22;6820;49.374;8.452;2022-08-01T13:52:16;31.53;75.92
13496;DHT22;6820;49.374;8.452;2022-08-01T13:56:17;31.46;76.21
13496;DHT22;6820;49.374;8.452;2022-08-01T14:00:21;31.52;75.43
13496;DHT22;6820;49.374;8.452;2022-08-01T14:04:22;31.74;75.43
13496;DHT22;6820;49.374;8.452;2022-08-01T14:08:24;31.84;74.70
13496;DHT22;6820;49.374;8.452;2022-08-01T14:12:26;31.94;73.62
13496;DHT22;6820;49.374;8.452;2022-08-01T14:16:27;32.03;73.88
13496;DHT22;6820;49.374;8.452;2022-08-01T14:20:29;32.22;73.59
13496;DHT22;6820;49.374;8.452;2022-08-01T14:24:31;32.09;73.26
13496;DHT22;6820;49.374;8.452;2022-08-01T14:28:32;31.87;73.19
13496;DHT22;6820;49.374;8.452;2022-08-01T14:32:35;31.72;73.72
13496;DHT22;6820;49.374;8.452;2022-08-01T14:36:37;31.59;73.92
13496;DHT22;6820;49.374;8.452;2022-08-01T14:40:39;31.64;73.27
13496;DHT22;6820;49.374;8.452;2022-08-01T14:44:41;31.98;72.16
13496;DHT22;6820;49.374;8.452;2022-08-01T14:48:50;31.92;72.80
13496;DHT22;6820;49.374;8.452;2022-08-01T14:52:52;31.78;72.80
13496;DHT22;6820;49.374;8.452;2022-08-01T14:56:54;31.31;73.33
13496;DHT22;6820;49.374;8.452;2022-08-01T15:00:55;31.28;73.99
13496;DHT22;6820;49.374;8.452;2022-08-01T15:04:59;31.10;73.99
13496;DHT22;6820;49.374;8.452;2022-08-01T15:09:01;30.90;74.22
13496;DHT22;6820;49.374;8.452;2022-08-01T15:13:09;30.72;74.62
13496;DHT22;6820;49.374;8.452;2022-08-01T15:17:11;30.66;75.04
13496;DHT22;6820;49.374;8.452;2022-08-01T15:21:13;30.86;75.14
13496;DHT22;6820;49.374;8.452;2022-08-01T15:25:34;31.05;75.04
13496;DHT22;6820;49.374;8.452;2022-08-01T15:29:42;31.20;75.30
13496;DHT22;6820;49.374;8.452;2022-08-01T15:33:44;31.10;75.26
13496;DHT22;6820;49.374;8.452;2022-08-01T15:37:45;31.04;75.20
13496;DHT22;6820;49.374;8.452;2022-08-01T15:41:47;30.78;75.50
13496;DHT22;6820;49.374;8.452;2022-08-01T15:45:48;30.64;76.22
13496;DHT22;6820;49.374;8.452;2022-08-01T15:49:50;30.56;76.12
13496;DHT22;6820;49.374;8.452;2022-08-01T15:53:53;30.37;76.46
13496;DHT22;6820;49.374;8.452;2022-08-01T15:57:54;30.44;76.59
13496;DHT22;6820;49.374;8.452;2022-08-01T16:01:56;30.32;76.65
13496;DHT22;6820;49.374;8.452;2022-08-01T16:05:58;30.28;76.98
13496;DHT22;6820;49.374;8.452;2022-08-01T16:10:00;30.15;77.67
13496;DHT22;6820;49.374;8.452;2022-08-01T16:14:02;30.10;78.06
13496;DHT22;6820;49.374;8.452;2022-08-01T16:18:04;30.03;78.00
13496;DHT22;6820;49.374;8.452;2022-08-01T16:22:06;29.94;78.50
13496;DHT22;6820;49.374;8.452;2022-08-01T16:26:09;29.95;78.11
13496;DHT22;6820;49.374;8.452;2022-08-01T16:30:28;30.06;77.81
13496;DHT22;6820;49.374;8.452;2022-08-01T16:34:32;29.99;78.00
13496;DHT22;6820;49.374;8.452;2022-08-01T16:38:35;29.76;78.40
13496;DHT22;6820;49.374;8.452;2022-08-01T16:42:37;29.60;78.74
13496;DHT22;6820;49.374;8.452;2022-08-01T16:46:39;29.52;78.57
13496;DHT22;6820;49.374;8.452;2022-08-01T16:50:41;29.44;79.06
13496;DHT22;6820;49.374;8.452;2022-08-01T16:54:43;29.33;79.06
13496;DHT22;6820;49.374;8.452;2022-08-01T16:58:44;29.21;79.10
13496;DHT22;6820;49.374;8.452;2022-08-01T17:02:46;29.18;79.10
13496;DHT22;6820;49.374;8.452;2022-08-01T17:06:48;29.18;79.50
13496;DHT22;6820;49.374;8.452;2022-08-01T17:10:52;29.27;79.60
13496;DHT22;6820;49.374;8.452;2022-08-01T17:14:54;29.33;79.50
13496;DHT22;6820;49.374;8.452;2022-08-01T17:18:56;29.25;79.30
13496;DHT22;6820;49.374;8.452;2022-08-01T17:22:57;29.15;80.19
13496;DHT22;6820;49.374;8.452;2022-08-01T17:27:00;29.11;80.22
13496;DHT22;6820;49.374;8.452;2022-08-01T17:31:02;29.02;80.82
13496;DHT22;6820;49.374;8.452;2022-08-01T17:35:09;28.91;81.02
13496;DHT22;6820;49.374;8.452;2022-08-01T17:39:12;28.87;81.15
13496;DHT22;6820;49.374;8.452;2022-08-01T17:43:14;28.87;81.15
13496;DHT22;6820;49.374;8.452;2022-08-01T17:47:15;28.83;80.96
13496;DHT22;6820;49.374;8.452;2022-08-01T17:51:37;28.76;81.25
13496;DHT22;6820;49.374;8.452;2022-08-01T17:55:42;28.64;81.74
13496;DHT22;6820;49.374;8.452;2022-08-01T17:59:57;28.57;82.28
13496;DHT22;6820;49.374;8.452;2022-08-01T18:03:59;28.48;82.87
13496;DHT22;6820;49.374;8.452;2022-08-01T18:08:01;28.39;83.26
13496;DHT22;6820;49.374;8.452;2022-08-01T18:12:03;28.30;83.80
13496;DHT22;6820;49.374;8.452;2022-08-01T18:16:09;28.24;83.80
13496;DHT22;6820;49.374;8.452;2022-08-01T18:20:13;28.20;83.90
13496;DHT22;6820;49.374;8.452;2022-08-01T18:24:15;28.14;84.03
13496;DHT22;6820;49.374;8.452;2022-08-01T18:28:17;28.11;84.23
13496;DHT22;6820;49.374;8.452;2022-08-01T18:32:31;28.03;84.83
13496;DHT22;6820;49.374;8.452;2022-08-01T18:36:32;28.05;85.12
13496;DHT22;6820;49.374;8.452;2022-08-01T18:40:34;27.98;85.61
13496;DHT22;6820;49.374;8.452;2022-08-01T18:44:36;27.84;86.01
13496;DHT22;6820;49.374;8.452;2022-08-01T18:48:38;27.78;86.55
13496;DHT22;6820;49.374;8.452;2022-08-01T18:52:39;27.65;87.24
13496;DHT22;6820;49.374;8.452;2022-08-01T18:56:43;27.53;87.58
13496;DHT22;6820;49.374;8.452;2022-08-01T19:00:45;27.42;87.77
13496;DHT22;6820;49.374;8.452;2022-08-01T19:04:47;27.31;88.41
13496;DHT22;6820;49.374;8.452;2022-08-01T19:08:48;27.21;88.90
13496;DHT22;6820;49.374;8.452;2022-08-01T19:12:52;27.11;89.44
13496;DHT22;6820;49.374;8.452;2022-08-01T19:16:53;27.08;89.64
13496;DHT22;6820;49.374;8.452;2022-08-01T19:20:56;27.06;89.84
13496;DHT22;6820;49.374;8.452;2022-08-01T19:24:58;27.09;89.84
13496;DHT22;6820;49.374;8.452;2022-08-01T19:29:00;27.06;90.03
13496;DHT22;6820;49.374;8.452;2022-08-01T19:33:05;27.06;89.84
13496;DHT22;6820;49.374;8.452;2022-08-01T19:37:07;26.98;90.53
13496;DHT22;6820;49.374;8.452;2022-08-01T19:41:10;26.96;90.33
13496;DHT22;6820;49.374;8.452;2022-08-01T19:45:13;26.94;90.08
13496;DHT22;6820;49.374;8.452;2022-08-01T19:49:16;26.94;90.28
13496;DHT22;6820;49.374;8.452;2022-08-01T19:53:19;26.88;90.87
13496;DHT22;6820;49.374;8.452;2022-08-01T19:57:24;26.83;91.36
13496;DHT22;6820;49.374;8.452;2022-08-01T20:01:46;26.68;92.06
13496;DHT22;6820;49.374;8.452;2022-08-01T20:05:49;26.61;92.30
13496;DHT22;6820;49.374;8.452;2022-08-01T20:09:51;26.51;92.50
13496;DHT22;6820;49.374;8.452;2022-08-01T20:13:55;26.44;92.40
13496;DHT22;6820;49.374;8.452;2022-08-01T20:17:57;26.36;92.44
13496;DHT22;6820;49.374;8.452;2022-08-01T20:22:00;26.34;92.74
13496;DHT22;6820;49.374;8.452;2022-08-01T20:26:06;26.28;93.24
13496;DHT22;6820;49.374;8.452;2022-08-01T20:30:09;26.28;93.14
13496;DHT22;6820;49.374;8.452;2022-08-01T20:34:12;26.29;93.14
13496;DHT22;6820;49.374;8.452;2022-08-01T20:38:24;26.27;93.33
13496;DHT22;6820;49.374;8.452;2022-08-01T20:42:28;26.23;93.44
13496;DHT22;6820;49.374;8.452;2022-08-01T20:46:31;26.16;93.58
13496;DHT22;6820;49.374;8.452;2022-08-01T20:50:34;26.11;93.98
13496;DHT22;6820;49.374;8.452;2022-08-01T20:54:55;26.03;94.47
13496;DHT22;6820;49.374;8.452;2022-08-01T20:59:04;25.93;94.87
13496;DHT22;6820;49.374;8.452;2022-08-01T21:03:39;25.94;94.82
13496;DHT22;6820;49.374;8.452;2022-08-01T21:08:11;25.86;95.21
13496;DHT22;6820;49.374;8.452;2022-08-01T21:12:19;25.81;95.41
13496;DHT22;6820;49.374;8.452;2022-08-01T21:16:28;25.71;95.81
13496;DHT22;6820;49.374;8.452;2022-08-01T21:20:34;25.63;96.15
13496;DHT22;6820;49.374;8.452;2022-08-01T21:24:53;25.57;96.25
13496;DHT22;6820;49.374;8.452;2022-08-01T21:28:59;25.54;96.25
13496;DHT22;6820;49.374;8.452;2022-08-01T21:33:05;25.45;96.45
13496;DHT22;6820;49.374;8.452;2022-08-01T21:37:11;25.38;96.79
13496;DHT22;6820;49.374;8.452;2022-08-01T21:41:16;25.34;96.79
13496;DHT22;6820;49.374;8.452;2022-08-01T21:45:38;25.31;96.79
13496;DHT22;6820;49.374;8.452;2022-08-01T21:49:59;25.22;96.99
13496;DHT22;6820;49.374;8.452;2022-08-01T21:54:06;25.14;97.24
13496;DHT22;6820;49.374;8.452;2022-08-01T22:07:18;24.99;97.53
13496;DHT22;6820;49.374;8.452;2022-08-01T22:11:24;25.02;97.48
13496;DHT22;6820;49.374;8.452;2022-08-01T22:15:29;24.94;97.58
13496;DHT22;6820;49.374;8.452;2022-08-01T22:19:45;24.92;97.58
13496;DHT22;6820;49.374;8.452;2022-08-01T22:23:53;24.90;97.68
13496;DHT22;6820;49.374;8.452;2022-08-01T22:27:55;24.86;97.38
13496;DHT22;6820;49.374;8.452;2022-08-01T22:32:09;24.83;97.48
13496;DHT22;6820;49.374;8.452;2022-08-01T22:36:14;24.82;97.38
13496;DHT22;6820;49.374;8.452;2022-08-01T22:40:17;24.77;97.53
13496;DHT22;6820;49.374;8.452;2022-08-01T22:44:20;24.67;97.83
13496;DHT22;6820;49.374;8.452;2022-08-01T22:52:37;24.59;98.22
13496;DHT22;6820;49.374;8.452;2022-08-01T22:56:49;24.60;98.13
13496;DHT22;6820;49.374;8.452;2022-08-01T23:00:58;24.61;98.13
13496;DHT22;6820;49.374;8.452;2022-08-01T23:05:03;24.61;98.13
13496;DHT22;6820;49.374;8.452;2022-08-01T23:09:07;24.59;98.22
13496;DHT22;6820;49.374;8.452;2022-08-01T23:13:09;24.52;98.32
13496;DHT22;6820;49.374;8.452;2022-08-01T23:17:12;24.46;98.57
13496;DHT22;6820;49.374;8.452;2022-08-01T23:21:28;24.39;98.27
13496;DHT22;6820;49.374;8.452;2022-08-01T23:25:32;24.36;98.07
13496;DHT22;6820;49.374;8.452;2022-08-01T23:29:34;24.23;98.27
13496;DHT22;6820;49.374;8.452;2022-08-01T23:33:36;24.16;98.42
13496;DHT22;6820;49.374;8.452;2022-08-01T23:37:37;24.05;99.02
13496;DHT22;6820;49.374;8.452;2022-08-01T23:41:39;23.97;99.26
13496;DHT22;6820;49.374;8.452;2022-08-01T23:45:58;23.87;99.66
13496;DHT22;6820;49.374;8.452;2022-08-01T23:50:05;23.77;99.99
13496;DHT22;6820;49.374;8.452;2022-08-01T23:54:08;23.72;99.99
13496;DHT22;6820;49.374;8.452;2022-08-01T23:58:10;23.67;99.99
